sensor_id;sensor_type;location;lat;lon;timestamp;P1;durP1;ratioP1;P2;durP2;ratioP2
14316;SDS011;7242;50.858;6.586;2022-09-02T00:01:51;4.90;;;1.10;;
14316;SDS011;7242;50.858;6.586;2022-09-02T00:04:52;2.77;;;1.37;;
14316;SDS011;7242;50.858;6.586;2022-09-02T00:07:53;1.20;;;1.00;;
14316;SDS011;7242;50.858;6.586;2022-09-02T00:10:54;4.23;;;1.00;;
14316;SDS011;7242;50.858;6.586;2022-09-02T00:13:55;3.73;;;1.10;;
14316;SDS011;7242;50.858;6.586;2022-09-02T00:16:57;2.67;;;1.20;;
14316;SDS011;7242;50.858;6.586;2022-09-02T00:19:59;1.50;;;1.10;;
14316;SDS011;7242;50.858;6.586;2022-09-02T00:23:00;1.90;;;1.10;;
14316;SDS011;7242;50.858;6.586;2022-09-02T00:26:01;2.03;;;1.10;;
14316;SDS011;7242;50.858;6.586;2022-09-02T00:29:03;1.73;;;1.20;;
14316;SDS011;7242;50.858;6.586;2022-09-02T00:32:04;2.47;;;1.20;;
14316;SDS011;7242;50.858;6.586;2022-09-02T00:35:05;1.70;;;1.00;;
14316;SDS011;7242;50.858;6.586;2022-09-02T00:38:07;1.83;;;1.00;;
14316;SDS011;7242;50.858;6.586;2022-09-02T00:41:09;4.83;;;1.27;;
14316;SDS011;7242;50.858;6.586;2022-09-02T00:44:13;2.20;;;1.10;;
14316;SDS011;7242;50.858;6.586;2022-09-02T00:47:16;2.17;;;1.20;;
14316;SDS011;7242;50.858;6.586;2022-09-02T00:50:18;2.00;;;1.00;;
14316;SDS011;7242;50.858;6.586;2022-09-02T00:53:22;1.70;;;1.10;;
14316;SDS011;7242;50.858;6.586;2022-09-02T00:56:26;2.40;;;1.10;;
14316;SDS011;7242;50.858;6.586;2022-09-02T00:59:45;2.47;;;1.10;;
14316;SDS011;7242;50.858;6.586;2022-09-02T01:03:08;1.17;;;1.00;;
14316;SDS011;7242;50.858;6.586;2022-09-02T01:06:13;2.57;;;1.30;;
14316;SDS011;7242;50.858;6.586;2022-09-02T01:09:14;1.87;;;1.13;;
14316;SDS011;7242;50.858;6.586;2022-09-02T01:12:16;2.70;;;1.07;;
14316;SDS011;7242;50.858;6.586;2022-09-02T01:15:17;2.20;;;1.10;;
14316;SDS011;7242;50.858;6.586;2022-09-02T01:18:20;2.23;;;1.10;;
14316;SDS011;7242;50.858;6.586;2022-09-02T01:21:23;2.53;;;1.10;;
14316;SDS011;7242;50.858;6.586;2022-09-02T01:24:26;2.13;;;1.20;;
14316;SDS011;7242;50.858;6.586;2022-09-02T01:27:29;2.13;;;1.00;;
14316;SDS011;7242;50.858;6.586;2022-09-02T01:30:30;1.43;;;1.10;;
14316;SDS011;7242;50.858;6.586;2022-09-02T01:33:32;1.40;;;1.00;;
14316;SDS011;7242;50.858;6.586;2022-09-02T01:36:36;5.30;;;1.20;;
14316;SDS011;7242;50.858;6.586;2022-09-02T01:39:38;2.13;;;0.97;;
14316;SDS011;7242;50.858;6.586;2022-09-02T01:42:40;2.03;;;1.13;;
14316;SDS011;7242;50.858;6.586;2022-09-02T01:45:42;2.13;;;1.10;;
14316;SDS011;7242;50.858;6.586;2022-09-02T01:48:45;1.70;;;1.20;;
14316;SDS011;7242;50.858;6.586;2022-09-02T01:51:46;1.90;;;1.00;;
14316;SDS011;7242;50.858;6.586;2022-09-02T01:54:47;1.43;;;0.90;;
14316;SDS011;7242;50.858;6.586;2022-09-02T01:57:48;1.50;;;1.20;;
14316;SDS011;7242;50.858;6.586;2022-09-02T02:00:49;2.10;;;0.93;;
14316;SDS011;7242;50.858;6.586;2022-09-02T02:03:51;2.47;;;1.13;;
14316;SDS011;7242;50.858;6.586;2022-09-02T02:06:55;3.20;;;1.20;;
14316;SDS011;7242;50.858;6.586;2022-09-02T02:09:56;3.93;;;1.10;;
14316;SDS011;7242;50.858;6.586;2022-09-02T02:12:58;2.50;;;1.07;;
14316;SDS011;7242;50.858;6.586;2022-09-02T02:16:02;2.83;;;1.13;;
14316;SDS011;7242;50.858;6.586;2022-09-02T02:19:03;3.87;;;1.20;;
14316;SDS011;7242;50.858;6.586;2022-09-02T02:22:05;1.40;;;1.10;;
14316;SDS011;7242;50.858;6.586;2022-09-02T02:25:07;2.33;;;1.23;;
14316;SDS011;7242;50.858;6.586;2022-09-02T02:28:08;1.43;;;1.07;;
14316;SDS011;7242;50.858;6.586;2022-09-02T02:31:11;1.73;;;1.20;;
14316;SDS011;7242;50.858;6.586;2022-09-02T02:34:12;2.03;;;1.00;;
14316;SDS011;7242;50.858;6.586;2022-09-02T02:37:14;1.87;;;1.33;;
14316;SDS011;7242;50.858;6.586;2022-09-02T02:40:16;1.53;;;1.20;;
14316;SDS011;7242;50.858;6.586;2022-09-02T02:43:20;1.40;;;0.93;;
14316;SDS011;7242;50.858;6.586;2022-09-02T02:46:21;2.10;;;1.17;;
14316;SDS011;7242;50.858;6.586;2022-09-02T02:49:22;2.40;;;1.10;;
14316;SDS011;7242;50.858;6.586;2022-09-02T02:52:26;1.40;;;1.10;;
14316;SDS011;7242;50.858;6.586;2022-09-02T02:55:27;1.97;;;1.20;;
14316;SDS011;7242;50.858;6.586;2022-09-02T02:58:30;1.70;;;1.03;;
14316;SDS011;7242;50.858;6.586;2022-09-02T03:01:31;2.23;;;1.20;;
14316;SDS011;7242;50.858;6.586;2022-09-02T03:04:32;1.13;;;1.03;;
14316;SDS011;7242;50.858;6.586;2022-09-02T03:07:34;2.13;;;1.40;;
14316;SDS011;7242;50.858;6.586;2022-09-02T03:10:37;2.63;;;1.10;;
14316;SDS011;7242;50.858;6.586;2022-09-02T03:13:41;3.10;;;1.20;;
14316;SDS011;7242;50.858;6.586;2022-09-02T03:16:42;1.97;;;1.10;;
14316;SDS011;7242;50.858;6.586;2022-09-02T03:19:43;1.90;;;1.00;;
14316;SDS011;7242;50.858;6.586;2022-09-02T03:22:45;1.87;;;1.00;;
14316;SDS011;7242;50.858;6.586;2022-09-02T03:25:47;3.33;;;1.10;;
14316;SDS011;7242;50.858;6.586;2022-09-02T03:28:56;1.80;;;1.20;;
14316;SDS011;7242;50.858;6.586;2022-09-02T03:31:58;1.63;;;1.30;;
14316;SDS011;7242;50.858;6.586;2022-09-02T03:35:02;3.70;;;1.50;;
14316;SDS011;7242;50.858;6.586;2022-09-02T03:38:07;2.40;;;1.20;;
14316;SDS011;7242;50.858;6.586;2022-09-02T03:41:09;1.23;;;1.10;;
14316;SDS011;7242;50.858;6.586;2022-09-02T03:44:10;2.83;;;1.27;;
14316;SDS011;7242;50.858;6.586;2022-09-02T03:47:12;2.87;;;1.30;;
14316;SDS011;7242;50.858;6.586;2022-09-02T03:50:13;2.23;;;1.27;;
14316;SDS011;7242;50.858;6.586;2022-09-02T03:53:14;3.87;;;1.27;;
14316;SDS011;7242;50.858;6.586;2022-09-02T03:56:15;3.50;;;1.27;;
14316;SDS011;7242;50.858;6.586;2022-09-02T03:59:17;2.97;;;1.37;;
14316;SDS011;7242;50.858;6.586;2022-09-02T04:02:18;1.80;;;1.30;;
14316;SDS011;7242;50.858;6.586;2022-09-02T04:05:19;2.03;;;1.40;;
14316;SDS011;7242;50.858;6.586;2022-09-02T04:08:23;2.63;;;1.40;;
14316;SDS011;7242;50.858;6.586;2022-09-02T04:11:26;2.10;;;1.10;;
14316;SDS011;7242;50.858;6.586;2022-09-02T04:14:27;2.13;;;1.17;;
14316;SDS011;7242;50.858;6.586;2022-09-02T04:17:28;1.17;;;1.07;;
14316;SDS011;7242;50.858;6.586;2022-09-02T04:20:30;3.17;;;1.10;;
14316;SDS011;7242;50.858;6.586;2022-09-02T04:23:31;2.20;;;1.23;;
14316;SDS011;7242;50.858;6.586;2022-09-02T04:26:32;2.23;;;1.47;;
14316;SDS011;7242;50.858;6.586;2022-09-02T04:29:33;3.73;;;1.40;;
14316;SDS011;7242;50.858;6.586;2022-09-02T04:32:35;2.83;;;1.30;;
14316;SDS011;7242;50.858;6.586;2022-09-02T04:35:40;2.53;;;1.30;;
14316;SDS011;7242;50.858;6.586;2022-09-02T04:38:43;3.07;;;1.33;;
14316;SDS011;7242;50.858;6.586;2022-09-02T04:41:45;1.90;;;1.33;;
14316;SDS011;7242;50.858;6.586;2022-09-02T04:44:47;2.63;;;1.40;;
14316;SDS011;7242;50.858;6.586;2022-09-02T04:47:49;4.07;;;1.37;;
14316;SDS011;7242;50.858;6.586;2022-09-02T04:50:50;3.33;;;1.60;;
14316;SDS011;7242;50.858;6.586;2022-09-02T04:53:52;5.43;;;1.50;;
14316;SDS011;7242;50.858;6.586;2022-09-02T04:56:53;2.83;;;1.40;;
14316;SDS011;7242;50.858;6.586;2022-09-02T04:59:56;2.27;;;1.70;;
14316;SDS011;7242;50.858;6.586;2022-09-02T05:02:57;2.17;;;1.30;;
14316;SDS011;7242;50.858;6.586;2022-09-02T05:06:02;3.20;;;1.60;;
14316;SDS011;7242;50.858;6.586;2022-09-02T05:09:06;3.27;;;1.50;;
14316;SDS011;7242;50.858;6.586;2022-09-02T05:12:09;2.60;;;1.50;;
14316;SDS011;7242;50.858;6.586;2022-09-02T05:15:18;4.07;;;1.80;;
14316;SDS011;7242;50.858;6.586;2022-09-02T05:18:20;2.63;;;1.57;;
14316;SDS011;7242;50.858;6.586;2022-09-02T05:21:23;2.37;;;1.40;;
14316;SDS011;7242;50.858;6.586;2022-09-02T05:24:24;2.97;;;1.70;;
14316;SDS011;7242;50.858;6.586;2022-09-02T05:27:26;2.47;;;1.63;;
14316;SDS011;7242;50.858;6.586;2022-09-02T05:30:28;3.43;;;1.60;;
14316;SDS011;7242;50.858;6.586;2022-09-02T05:33:30;3.03;;;1.30;;
14316;SDS011;7242;50.858;6.586;2022-09-02T05:36:32;2.23;;;1.33;;
14316;SDS011;7242;50.858;6.586;2022-09-02T05:39:33;2.70;;;1.73;;
14316;SDS011;7242;50.858;6.586;2022-09-02T05:42:35;2.67;;;1.50;;
14316;SDS011;7242;50.858;6.586;2022-09-02T05:45:37;2.90;;;1.70;;
14316;SDS011;7242;50.858;6.586;2022-09-02T05:48:39;3.47;;;1.70;;
14316;SDS011;7242;50.858;6.586;2022-09-02T05:52:00;3.03;;;1.60;;
14316;SDS011;7242;50.858;6.586;2022-09-02T05:55:21;3.23;;;1.77;;
14316;SDS011;7242;50.858;6.586;2022-09-02T05:58:23;3.10;;;1.57;;
14316;SDS011;7242;50.858;6.586;2022-09-02T06:01:26;1.93;;;1.40;;
14316;SDS011;7242;50.858;6.586;2022-09-02T06:04:27;6.13;;;1.63;;
14316;SDS011;7242;50.858;6.586;2022-09-02T06:07:30;4.00;;;1.90;;
14316;SDS011;7242;50.858;6.586;2022-09-02T06:10:31;2.33;;;1.60;;
14316;SDS011;7242;50.858;6.586;2022-09-02T06:13:34;3.17;;;1.60;;
14316;SDS011;7242;50.858;6.586;2022-09-02T06:16:37;2.93;;;1.50;;
14316;SDS011;7242;50.858;6.586;2022-09-02T06:19:46;4.00;;;1.53;;
14316;SDS011;7242;50.858;6.586;2022-09-02T06:22:47;2.57;;;1.53;;
14316;SDS011;7242;50.858;6.586;2022-09-02T06:25:48;3.60;;;1.60;;
14316;SDS011;7242;50.858;6.586;2022-09-02T06:28:51;2.27;;;1.53;;
14316;SDS011;7242;50.858;6.586;2022-09-02T06:31:53;2.73;;;1.73;;
14316;SDS011;7242;50.858;6.586;2022-09-02T06:34:57;3.57;;;1.50;;
14316;SDS011;7242;50.858;6.586;2022-09-02T06:37:59;3.43;;;1.83;;
14316;SDS011;7242;50.858;6.586;2022-09-02T06:41:01;2.80;;;1.60;;
14316;SDS011;7242;50.858;6.586;2022-09-02T06:44:10;2.43;;;1.60;;
14316;SDS011;7242;50.858;6.586;2022-09-02T06:47:12;3.77;;;1.73;;
14316;SDS011;7242;50.858;6.586;2022-09-02T06:50:13;3.50;;;1.80;;
14316;SDS011;7242;50.858;6.586;2022-09-02T06:53:15;7.50;;;1.80;;
14316;SDS011;7242;50.858;6.586;2022-09-02T06:56:17;4.10;;;1.73;;
14316;SDS011;7242;50.858;6.586;2022-09-02T06:59:19;4.80;;;1.40;;
14316;SDS011;7242;50.858;6.586;2022-09-02T07:02:23;2.87;;;1.50;;
14316;SDS011;7242;50.858;6.586;2022-09-02T07:05:25;2.87;;;1.20;;
14316;SDS011;7242;50.858;6.586;2022-09-02T07:08:27;2.77;;;1.40;;
14316;SDS011;7242;50.858;6.586;2022-09-02T07:11:30;6.47;;;1.40;;
14316;SDS011;7242;50.858;6.586;2022-09-02T07:14:36;2.63;;;1.20;;
14316;SDS011;7242;50.858;6.586;2022-09-02T07:17:39;4.80;;;1.20;;
14316;SDS011;7242;50.858;6.586;2022-09-02T07:20:48;5.23;;;1.50;;
14316;SDS011;7242;50.858;6.586;2022-09-02T07:23:49;5.73;;;1.47;;
14316;SDS011;7242;50.858;6.586;2022-09-02T07:26:51;1.97;;;1.10;;
14316;SDS011;7242;50.858;6.586;2022-09-02T07:29:53;5.80;;;1.30;;
14316;SDS011;7242;50.858;6.586;2022-09-02T07:32:56;2.00;;;1.00;;
14316;SDS011;7242;50.858;6.586;2022-09-02T07:35:59;2.65;;;1.20;;
14316;SDS011;7242;50.858;6.586;2022-09-02T07:39:00;7.13;;;1.30;;
14316;SDS011;7242;50.858;6.586;2022-09-02T07:42:03;2.13;;;1.20;;
14316;SDS011;7242;50.858;6.586;2022-09-02T07:45:05;2.13;;;1.05;;
14316;SDS011;7242;50.858;6.586;2022-09-02T07:48:08;2.38;;;1.20;;
14316;SDS011;7242;50.858;6.586;2022-09-02T07:51:11;1.45;;;1.20;;
14316;SDS011;7242;50.858;6.586;2022-09-02T07:54:14;3.60;;;1.25;;
14316;SDS011;7242;50.858;6.586;2022-09-02T07:57:17;3.25;;;1.30;;
14316;SDS011;7242;50.858;6.586;2022-09-02T08:00:19;1.88;;;1.10;;
14316;SDS011;7242;50.858;6.586;2022-09-02T08:03:24;2.38;;;1.15;;
14316;SDS011;7242;50.858;6.586;2022-09-02T08:06:29;2.17;;;1.00;;
14316;SDS011;7242;50.858;6.586;2022-09-02T08:09:30;3.60;;;1.10;;
14316;SDS011;7242;50.858;6.586;2022-09-02T08:12:31;3.33;;;1.20;;
14316;SDS011;7242;50.858;6.586;2022-09-02T08:15:33;7.70;;;1.37;;
14316;SDS011;7242;50.858;6.586;2022-09-02T08:18:36;4.87;;;1.43;;
14316;SDS011;7242;50.858;6.586;2022-09-02T08:21:37;2.47;;;1.30;;
14316;SDS011;7242;50.858;6.586;2022-09-02T08:24:38;3.33;;;1.30;;
14316;SDS011;7242;50.858;6.586;2022-09-02T08:27:39;3.87;;;1.20;;
14316;SDS011;7242;50.858;6.586;2022-09-02T08:30:40;3.97;;;1.23;;
14316;SDS011;7242;50.858;6.586;2022-09-02T08:33:41;2.77;;;1.47;;
14316;SDS011;7242;50.858;6.586;2022-09-02T08:36:42;3.83;;;1.20;;
14316;SDS011;7242;50.858;6.586;2022-09-02T08:39:42;5.27;;;1.60;;
14316;SDS011;7242;50.858;6.586;2022-09-02T08:45:46;4.33;;;1.50;;
14316;SDS011;7242;50.858;6.586;2022-09-02T08:52:14;1.40;;;1.30;;
14316;SDS011;7242;50.858;6.586;2022-09-02T08:55:51;2.30;;;1.30;;
14316;SDS011;7242;50.858;6.586;2022-09-02T08:58:54;5.50;;;1.40;;
14316;SDS011;7242;50.858;6.586;2022-09-02T09:02:06;4.33;;;1.40;;
14316;SDS011;7242;50.858;6.586;2022-09-02T09:18:16;5.90;;;1.37;;
14316;SDS011;7242;50.858;6.586;2022-09-02T09:21:38;2.33;;;1.10;;
14316;SDS011;7242;50.858;6.586;2022-09-02T09:24:43;2.33;;;1.20;;
14316;SDS011;7242;50.858;6.586;2022-09-02T09:27:45;2.70;;;1.40;;
14316;SDS011;7242;50.858;6.586;2022-09-02T09:30:46;4.83;;;1.30;;
14316;SDS011;7242;50.858;6.586;2022-09-02T09:34:20;2.17;;;1.20;;
14316;SDS011;7242;50.858;6.586;2022-09-02T09:37:31;4.90;;;1.30;;
14316;SDS011;7242;50.858;6.586;2022-09-02T09:40:39;4.73;;;1.30;;
14316;SDS011;7242;50.858;6.586;2022-09-02T09:43:40;4.03;;;1.30;;
14316;SDS011;7242;50.858;6.586;2022-09-02T09:46:41;2.40;;;1.07;;
14316;SDS011;7242;50.858;6.586;2022-09-02T09:49:42;4.10;;;1.00;;
14316;SDS011;7242;50.858;6.586;2022-09-02T09:52:43;4.07;;;1.07;;
14316;SDS011;7242;50.858;6.586;2022-09-02T09:59:00;3.27;;;1.10;;
14316;SDS011;7242;50.858;6.586;2022-09-02T10:02:01;1.27;;;1.00;;
14316;SDS011;7242;50.858;6.586;2022-09-02T10:05:10;3.90;;;1.00;;
14316;SDS011;7242;50.858;6.586;2022-09-02T10:08:22;5.23;;;1.03;;
14316;SDS011;7242;50.858;6.586;2022-09-02T10:11:25;3.50;;;1.00;;
14316;SDS011;7242;50.858;6.586;2022-09-02T10:14:27;4.00;;;1.00;;
14316;SDS011;7242;50.858;6.586;2022-09-02T10:21:04;3.93;;;1.60;;
14316;SDS011;7242;50.858;6.586;2022-09-02T10:27:17;1.40;;;1.00;;
14316;SDS011;7242;50.858;6.586;2022-09-02T10:37:47;3.10;;;1.13;;
14316;SDS011;7242;50.858;6.586;2022-09-02T10:41:12;3.17;;;1.10;;
14316;SDS011;7242;50.858;6.586;2022-09-02T10:44:31;2.60;;;1.10;;
14316;SDS011;7242;50.858;6.586;2022-09-02T10:47:37;1.73;;;0.90;;
14316;SDS011;7242;50.858;6.586;2022-09-02T10:50:40;2.50;;;1.07;;
14316;SDS011;7242;50.858;6.586;2022-09-02T10:53:54;1.33;;;1.00;;
14316;SDS011;7242;50.858;6.586;2022-09-02T11:00:15;3.80;;;1.10;;
14316;SDS011;7242;50.858;6.586;2022-09-02T11:06:20;2.07;;;1.00;;
14316;SDS011;7242;50.858;6.586;2022-09-02T11:09:27;1.90;;;1.03;;
14316;SDS011;7242;50.858;6.586;2022-09-02T11:12:35;1.90;;;0.90;;
14316;SDS011;7242;50.858;6.586;2022-09-02T11:16:24;3.50;;;1.07;;
14316;SDS011;7242;50.858;6.586;2022-09-02T11:22:26;6.03;;;0.97;;
14316;SDS011;7242;50.858;6.586;2022-09-02T11:25:46;4.10;;;1.13;;
14316;SDS011;7242;50.858;6.586;2022-09-02T11:28:57;6.67;;;1.10;;
14316;SDS011;7242;50.858;6.586;2022-09-02T11:32:09;2.27;;;1.03;;
14316;SDS011;7242;50.858;6.586;2022-09-02T11:35:19;6.23;;;1.20;;
14316;SDS011;7242;50.858;6.586;2022-09-02T11:41:42;1.00;;;0.90;;
14316;SDS011;7242;50.858;6.586;2022-09-02T11:45:07;5.03;;;1.10;;
14316;SDS011;7242;50.858;6.586;2022-09-02T11:48:42;2.80;;;0.87;;
14316;SDS011;7242;50.858;6.586;2022-09-02T11:52:07;4.37;;;1.07;;
14316;SDS011;7242;50.858;6.586;2022-09-02T11:55:19;3.23;;;1.07;;
14316;SDS011;7242;50.858;6.586;2022-09-02T12:01:38;1.20;;;0.97;;
14316;SDS011;7242;50.858;6.586;2022-09-02T12:04:49;3.30;;;1.20;;
14316;SDS011;7242;50.858;6.586;2022-09-02T12:07:50;1.10;;;0.97;;
14316;SDS011;7242;50.858;6.586;2022-09-02T12:13:52;3.20;;;1.07;;
14316;SDS011;7242;50.858;6.586;2022-09-02T12:17:03;2.47;;;1.10;;
14316;SDS011;7242;50.858;6.586;2022-09-02T12:20:06;3.40;;;1.00;;
14316;SDS011;7242;50.858;6.586;2022-09-02T12:24:01;1.43;;;1.13;;
14316;SDS011;7242;50.858;6.586;2022-09-02T12:29:50;1.43;;;1.10;;
14316;SDS011;7242;50.858;6.586;2022-09-02T12:35:55;2.57;;;1.20;;
14316;SDS011;7242;50.858;6.586;2022-09-02T12:39:43;3.73;;;1.13;;
14316;SDS011;7242;50.858;6.586;2022-09-02T12:42:25;2.30;;;0.87;;
14316;SDS011;7242;50.858;6.586;2022-09-02T12:45:30;1.80;;;1.03;;
14316;SDS011;7242;50.858;6.586;2022-09-02T12:48:36;3.83;;;1.03;;
14316;SDS011;7242;50.858;6.586;2022-09-02T12:51:54;4.70;;;1.20;;
14316;SDS011;7242;50.858;6.586;2022-09-02T12:54:56;1.73;;;1.10;;
14316;SDS011;7242;50.858;6.586;2022-09-02T12:58:06;2.07;;;1.00;;
14316;SDS011;7242;50.858;6.586;2022-09-02T13:01:16;3.23;;;1.33;;
14316;SDS011;7242;50.858;6.586;2022-09-02T13:11:31;2.23;;;0.90;;
14316;SDS011;7242;50.858;6.586;2022-09-02T13:17:53;2.67;;;1.30;;
14316;SDS011;7242;50.858;6.586;2022-09-02T13:24:35;1.43;;;1.10;;
14316;SDS011;7242;50.858;6.586;2022-09-02T13:31:01;3.10;;;1.00;;
14316;SDS011;7242;50.858;6.586;2022-09-02T13:34:04;3.67;;;1.00;;
14316;SDS011;7242;50.858;6.586;2022-09-02T13:40:32;4.63;;;1.20;;
14316;SDS011;7242;50.858;6.586;2022-09-02T13:43:35;1.43;;;1.17;;
14316;SDS011;7242;50.858;6.586;2022-09-02T13:46:49;1.67;;;1.00;;
14316;SDS011;7242;50.858;6.586;2022-09-02T13:49:53;2.97;;;1.10;;
14316;SDS011;7242;50.858;6.586;2022-09-02T13:53:05;2.57;;;0.97;;
14316;SDS011;7242;50.858;6.586;2022-09-02T13:56:08;2.97;;;1.10;;
14316;SDS011;7242;50.858;6.586;2022-09-02T13:59:11;3.37;;;1.20;;
14316;SDS011;7242;50.858;6.586;2022-09-02T14:02:16;2.37;;;1.10;;
14316;SDS011;7242;50.858;6.586;2022-09-02T14:05:24;3.03;;;1.00;;
14316;SDS011;7242;50.858;6.586;2022-09-02T14:08:26;2.13;;;0.80;;
14316;SDS011;7242;50.858;6.586;2022-09-02T14:11:32;2.07;;;0.80;;
14316;SDS011;7242;50.858;6.586;2022-09-02T14:14:42;2.00;;;0.87;;
14316;SDS011;7242;50.858;6.586;2022-09-02T14:17:43;1.63;;;0.83;;
14316;SDS011;7242;50.858;6.586;2022-09-02T14:20:58;2.97;;;1.00;;
14316;SDS011;7242;50.858;6.586;2022-09-02T14:24:10;1.87;;;1.00;;
14316;SDS011;7242;50.858;6.586;2022-09-02T14:27:17;2.00;;;1.07;;
14316;SDS011;7242;50.858;6.586;2022-09-02T14:30:33;2.43;;;1.07;;
14316;SDS011;7242;50.858;6.586;2022-09-02T14:33:42;2.20;;;0.97;;
14316;SDS011;7242;50.858;6.586;2022-09-02T14:36:44;4.87;;;1.10;;
14316;SDS011;7242;50.858;6.586;2022-09-02T14:39:51;1.73;;;1.10;;
14316;SDS011;7242;50.858;6.586;2022-09-02T14:42:58;5.40;;;1.20;;
14316;SDS011;7242;50.858;6.586;2022-09-02T14:46:03;3.03;;;1.00;;
14316;SDS011;7242;50.858;6.586;2022-09-02T14:52:27;1.47;;;0.90;;
14316;SDS011;7242;50.858;6.586;2022-09-02T14:58:42;2.67;;;1.00;;
14316;SDS011;7242;50.858;6.586;2022-09-02T15:01:45;5.03;;;1.00;;
14316;SDS011;7242;50.858;6.586;2022-09-02T15:04:49;2.83;;;0.80;;
14316;SDS011;7242;50.858;6.586;2022-09-02T15:07:50;2.40;;;0.97;;
14316;SDS011;7242;50.858;6.586;2022-09-02T15:10:51;2.30;;;1.00;;
14316;SDS011;7242;50.858;6.586;2022-09-02T15:13:53;1.37;;;1.10;;
14316;SDS011;7242;50.858;6.586;2022-09-02T15:16:54;2.47;;;1.40;;
14316;SDS011;7242;50.858;6.586;2022-09-02T15:19:55;2.07;;;1.20;;
14316;SDS011;7242;50.858;6.586;2022-09-02T15:22:56;4.60;;;1.40;;
14316;SDS011;7242;50.858;6.586;2022-09-02T15:25:58;2.27;;;1.23;;
14316;SDS011;7242;50.858;6.586;2022-09-02T15:28:58;2.37;;;1.00;;
14316;SDS011;7242;50.858;6.586;2022-09-02T15:31:59;3.97;;;1.10;;
14316;SDS011;7242;50.858;6.586;2022-09-02T15:35:03;1.63;;;1.00;;
14316;SDS011;7242;50.858;6.586;2022-09-02T15:38:05;3.03;;;1.07;;
14316;SDS011;7242;50.858;6.586;2022-09-02T15:41:21;3.23;;;1.10;;
14316;SDS011;7242;50.858;6.586;2022-09-02T15:44:23;2.53;;;1.23;;
14316;SDS011;7242;50.858;6.586;2022-09-02T15:47:25;1.63;;;1.00;;
14316;SDS011;7242;50.858;6.586;2022-09-02T15:50:30;2.57;;;1.10;;
14316;SDS011;7242;50.858;6.586;2022-09-02T15:53:32;1.27;;;1.00;;
14316;SDS011;7242;50.858;6.586;2022-09-02T15:56:34;3.00;;;1.27;;
14316;SDS011;7242;50.858;6.586;2022-09-02T15:59:37;2.70;;;0.90;;
14316;SDS011;7242;50.858;6.586;2022-09-02T16:02:37;2.80;;;0.90;;
14316;SDS011;7242;50.858;6.586;2022-09-02T16:05:38;2.20;;;1.10;;
14316;SDS011;7242;50.858;6.586;2022-09-02T16:08:42;2.50;;;1.03;;
14316;SDS011;7242;50.858;6.586;2022-09-02T16:11:43;2.33;;;1.00;;
14316;SDS011;7242;50.858;6.586;2022-09-02T16:14:51;3.13;;;0.90;;
14316;SDS011;7242;50.858;6.586;2022-09-02T16:17:52;1.33;;;1.00;;
14316;SDS011;7242;50.858;6.586;2022-09-02T16:20:53;2.70;;;0.90;;
14316;SDS011;7242;50.858;6.586;2022-09-02T16:23:54;1.50;;;1.10;;
14316;SDS011;7242;50.858;6.586;2022-09-02T16:26:55;3.33;;;1.00;;
14316;SDS011;7242;50.858;6.586;2022-09-02T16:29:56;2.87;;;1.10;;
14316;SDS011;7242;50.858;6.586;2022-09-02T16:32:57;1.10;;;0.90;;
14316;SDS011;7242;50.858;6.586;2022-09-02T16:35:58;1.43;;;0.90;;
14316;SDS011;7242;50.858;6.586;2022-09-02T16:38:59;1.63;;;1.10;;
14316;SDS011;7242;50.858;6.586;2022-09-02T16:42:01;1.37;;;0.90;;
14316;SDS011;7242;50.858;6.586;2022-09-02T16:45:03;2.50;;;1.10;;
14316;SDS011;7242;50.858;6.586;2022-09-02T16:48:04;3.67;;;1.00;;
14316;SDS011;7242;50.858;6.586;2022-09-02T16:51:05;2.07;;;1.00;;
14316;SDS011;7242;50.858;6.586;2022-09-02T16:54:06;1.63;;;1.10;;
14316;SDS011;7242;50.858;6.586;2022-09-02T16:57:08;2.27;;;0.90;;
14316;SDS011;7242;50.858;6.586;2022-09-02T17:00:09;1.10;;;1.00;;
14316;SDS011;7242;50.858;6.586;2022-09-02T17:03:10;3.60;;;0.90;;
14316;SDS011;7242;50.858;6.586;2022-09-02T17:06:11;1.97;;;1.00;;
14316;SDS011;7242;50.858;6.586;2022-09-02T17:09:12;6.13;;;1.27;;
14316;SDS011;7242;50.858;6.586;2022-09-02T17:12:13;2.67;;;1.00;;
14316;SDS011;7242;50.858;6.586;2022-09-02T17:15:14;3.20;;;1.20;;
14316;SDS011;7242;50.858;6.586;2022-09-02T17:18:15;2.53;;;1.10;;
14316;SDS011;7242;50.858;6.586;2022-09-02T17:24:26;2.50;;;1.07;;
14316;SDS011;7242;50.858;6.586;2022-09-02T17:27:27;4.90;;;1.10;;
14316;SDS011;7242;50.858;6.586;2022-09-02T17:30:27;4.83;;;1.10;;
14316;SDS011;7242;50.858;6.586;2022-09-02T17:33:29;4.60;;;1.30;;
14316;SDS011;7242;50.858;6.586;2022-09-02T17:36:30;4.33;;;1.23;;
14316;SDS011;7242;50.858;6.586;2022-09-02T17:39:33;5.27;;;1.20;;
14316;SDS011;7242;50.858;6.586;2022-09-02T17:42:33;2.77;;;1.10;;
14316;SDS011;7242;50.858;6.586;2022-09-02T17:45:34;2.30;;;1.00;;
14316;SDS011;7242;50.858;6.586;2022-09-02T17:48:36;2.27;;;0.90;;
14316;SDS011;7242;50.858;6.586;2022-09-02T17:51:37;2.07;;;0.90;;
14316;SDS011;7242;50.858;6.586;2022-09-02T17:54:39;1.90;;;0.83;;
14316;SDS011;7242;50.858;6.586;2022-09-02T18:01:17;2.93;;;1.17;;
14316;SDS011;7242;50.858;6.586;2022-09-02T18:11:07;5.50;;;1.30;;
14316;SDS011;7242;50.858;6.586;2022-09-02T18:17:40;2.50;;;0.83;;
14316;SDS011;7242;50.858;6.586;2022-09-02T18:20:50;4.80;;;1.00;;
14316;SDS011;7242;50.858;6.586;2022-09-02T18:30:43;3.73;;;1.20;;
14316;SDS011;7242;50.858;6.586;2022-09-02T18:47:38;3.20;;;1.10;;
14316;SDS011;7242;50.858;6.586;2022-09-02T18:51:42;3.07;;;1.03;;
14316;SDS011;7242;50.858;6.586;2022-09-02T18:54:48;2.30;;;1.13;;
14316;SDS011;7242;50.858;6.586;2022-09-02T18:57:56;2.70;;;0.90;;
14316;SDS011;7242;50.858;6.586;2022-09-02T19:01:01;1.97;;;0.93;;
14316;SDS011;7242;50.858;6.586;2022-09-02T19:04:09;3.27;;;1.23;;
14316;SDS011;7242;50.858;6.586;2022-09-02T19:07:10;1.53;;;1.00;;
14316;SDS011;7242;50.858;6.586;2022-09-02T19:10:31;1.57;;;1.00;;
14316;SDS011;7242;50.858;6.586;2022-09-02T19:13:48;3.40;;;1.03;;
14316;SDS011;7242;50.858;6.586;2022-09-02T19:16:49;1.47;;;1.03;;
14316;SDS011;7242;50.858;6.586;2022-09-02T19:19:50;2.30;;;1.10;;
14316;SDS011;7242;50.858;6.586;2022-09-02T19:22:51;2.30;;;1.03;;
14316;SDS011;7242;50.858;6.586;2022-09-02T19:25:54;1.50;;;1.10;;
14316;SDS011;7242;50.858;6.586;2022-09-02T19:28:56;2.07;;;1.00;;
14316;SDS011;7242;50.858;6.586;2022-09-02T19:31:57;1.83;;;1.10;;
14316;SDS011;7242;50.858;6.586;2022-09-02T19:34:59;4.90;;;1.07;;
14316;SDS011;7242;50.858;6.586;2022-09-02T19:38:03;2.03;;;1.23;;
14316;SDS011;7242;50.858;6.586;2022-09-02T19:41:04;3.97;;;1.20;;
14316;SDS011;7242;50.858;6.586;2022-09-02T19:44:06;1.73;;;1.07;;
14316;SDS011;7242;50.858;6.586;2022-09-02T19:47:08;1.93;;;1.20;;
14316;SDS011;7242;50.858;6.586;2022-09-02T19:50:10;2.23;;;1.00;;
14316;SDS011;7242;50.858;6.586;2022-09-02T19:53:19;3.40;;;1.00;;
14316;SDS011;7242;50.858;6.586;2022-09-02T19:56:24;1.10;;;1.00;;
14316;SDS011;7242;50.858;6.586;2022-09-02T19:59:25;3.57;;;1.20;;
14316;SDS011;7242;50.858;6.586;2022-09-02T20:02:26;2.20;;;1.20;;
14316;SDS011;7242;50.858;6.586;2022-09-02T20:05:27;3.37;;;1.40;;
14316;SDS011;7242;50.858;6.586;2022-09-02T20:08:28;4.83;;;1.10;;
14316;SDS011;7242;50.858;6.586;2022-09-02T20:11:30;5.10;;;1.13;;
14316;SDS011;7242;50.858;6.586;2022-09-02T20:14:32;4.90;;;1.20;;
14316;SDS011;7242;50.858;6.586;2022-09-02T20:17:34;3.60;;;1.17;;
14316;SDS011;7242;50.858;6.586;2022-09-02T20:20:35;1.43;;;1.30;;
14316;SDS011;7242;50.858;6.586;2022-09-02T20:23:36;1.47;;;1.10;;
14316;SDS011;7242;50.858;6.586;2022-09-02T20:33:16;3.33;;;0.90;;
14316;SDS011;7242;50.858;6.586;2022-09-02T20:36:22;5.43;;;1.20;;
14316;SDS011;7242;50.858;6.586;2022-09-02T20:46:15;2.47;;;1.10;;
14316;SDS011;7242;50.858;6.586;2022-09-02T20:56:06;2.53;;;1.20;;
14316;SDS011;7242;50.858;6.586;2022-09-02T21:05:54;1.93;;;0.97;;
14316;SDS011;7242;50.858;6.586;2022-09-02T21:15:23;4.23;;;1.20;;
14316;SDS011;7242;50.858;6.586;2022-09-02T21:18:39;2.27;;;1.30;;
14316;SDS011;7242;50.858;6.586;2022-09-02T21:25:03;1.67;;;1.20;;
14316;SDS011;7242;50.858;6.586;2022-09-02T21:28:35;3.23;;;1.30;;
14316;SDS011;7242;50.858;6.586;2022-09-02T21:32:06;2.03;;;1.03;;